Latest Weather Observations for Horsham

IDV60801

Issued at 11:02 pm EST Monday 31 August 2015 (issued every 30 minutes, with the page automatically refreshed every 10 minutes)

About weather observations | Map of weather stations | Latest weather observations for VIC | Other Formats
Station Details ID: 079100 Name: HORSHAM AERODROME Lat: -36.67 Lon: 142.17 Height: 133.8 m
Data from the previous 72 hours. | See also: Recent months at Horsham
Date/Time
EST
Temp
°C
App
Temp
°C
Dew
Point
Rel
Hum
%
Delta-T
°C
Wind Press
QNH
hPa
Press
MSL
hPa
Rain
since 9 am
mm
Dir
 
Spd
km/h
Gust
km/h
Spd
kts
Gust
kts
31/11:00pm 0.7 -4.2 -0.7 90 0.5 ESE 15 17 8 9 1018.7 1018.9 0.0
31/10:30pm 1.6 -2.9 -0.5 86 0.8 ESE 13 15 7 8 1018.9 1019.1 0.0
31/10:00pm 3.0 -2.1 0.7 85 0.9 ESE 17 19 9 10 1019.0 1019.2 0.0
31/09:30pm 2.9 -2.3 0.1 82 1.1 ESE 17 19 9 10 1019.2 1019.4 0.0
31/09:00pm 3.6 -1.5 0.5 80 1.2 ESE 17 19 9 10 1019.3 1019.5 0.0
31/08:30pm 5.0 0.7 1.3 77 1.5 ESE 13 17 7 9 1019.2 1019.4 0.0
31/08:00pm 6.3 2.9 1.8 73 1.8 S 9 11 5 6 1019.2 1019.4 0.0
31/07:30pm 5.7 2.2 1.2 73 1.8 SSE 9 13 5 7 1018.9 1019.1 0.0
31/07:00pm 8.3 4.7 3.2 70 2.2 WSW 11 11 6 6 1018.6 1018.8 0.0
31/06:30pm 9.5 6.4 3.5 66 2.6 SW 9 11 5 6 1018.4 1018.6 0.0
31/06:00pm 11.1 7.6 3.6 60 3.3 SW 11 13 6 7 1018.2 1018.4 0.0
31/05:30pm 12.5 9.0 3.7 55 4.0 SW 11 17 6 9 1018.2 1018.4 0.0
31/05:00pm 12.8 9.3 3.5 53 4.2 SSW 11 17 6 9 1018.1 1018.3 0.0
31/04:30pm 13.2 9.3 3.3 51 4.5 SW 13 20 7 11 1018.3 1018.5 0.0
31/04:00pm 13.0 8.3 3.1 51 4.4 SW 17 24 9 13 1018.4 1018.6 0.0
31/03:30pm 13.2 8.9 3.0 50 4.6 WSW 15 20 8 11 1018.7 1018.9 0.0
31/03:00pm 12.7 8.3 2.8 51 4.4 WSW 15 20 8 11 1018.9 1019.1 0.0
31/02:30pm 12.5 7.4 3.2 53 4.1 SW 19 26 10 14 1019.2 1019.4 0.0
31/02:00pm 12.4 8.0 2.8 52 4.2 SW 15 26 8 14 1019.6 1019.9 0.0
31/01:30pm 12.5 7.4 3.2 53 4.1 SW 19 26 10 14 1020.0 1020.3 0.0
31/01:00pm 12.0 8.0 3.0 54 4.0 SSW 13 28 7 15 1020.3 1020.6 0.0
31/12:30pm 11.9 7.3 3.9 58 3.6 SSW 17 26 9 14 1020.8 1021.1 0.0
31/12:00pm 10.7 6.1 3.5 61 3.2 SW 17 26 9 14 1021.5 1021.7 0.0
31/11:30am 10.1 5.0 3.2 62 3.0 SW 19 32 10 17 1021.7 1021.9 0.0
31/11:00am 10.1 5.8 3.4 63 2.9 WSW 15 22 8 12 1021.8 1022.0 0.0
31/10:30am 9.1 4.4 3.3 67 2.5 SSW 17 22 9 12 1022.1 1022.3 0.0
31/10:00am 8.7 4.8 3.3 69 2.3 S 13 20 7 11 1022.4 1022.6 0.0
31/09:30am 8.0 4.0 2.9 70 2.2 S 13 19 7 10 1022.4 1022.6 0.0
31/09:00am 7.8 3.9 3.3 73 1.9 S 13 19 7 10 1022.4 1022.6 0.0
31/08:30am 6.7 3.5 3.3 79 1.4 SSW 9 11 5 6 1022.4 1022.6 0.0
31/08:00am 5.2 2.7 3.5 89 0.7 S 6 6 3 3 1022.3 1022.5 0.0
31/07:30am 3.3 -0.1 1.8 90 0.6 S 9 11 5 6 1022.1 1022.3 0.0
31/07:00am 3.1 -0.3 1.6 90 0.6 SW 9 11 5 6 1021.9 1022.1 0.0
31/06:30am 3.4 0.0 1.9 90 0.6 S 9 11 5 6 1021.8 1022.0 0.0
31/06:00am 3.0 -0.5 1.4 89 0.6 SSW 9 11 5 6 1021.7 1021.9 0.0
31/05:30am 3.7 0.3 1.6 86 0.8 SW 9 13 5 7 1021.6 1021.8 0.0
31/05:00am 4.6 0.9 2.3 85 0.9 SSW 11 13 6 7 1021.6 1021.8 0.0
31/04:30am 4.1 0.2 1.3 82 1.1 SSW 11 15 6 8 1021.4 1021.6 0.0
31/04:00am 5.5 1.8 2.3 80 1.3 SW 11 13 6 7 1021.7 1021.9 0.0
31/03:30am 6.7 3.5 3.0 77 1.6 SW 9 11 5 6 1021.7 1021.9 0.0
31/03:00am 7.3 3.8 3.4 76 1.7 SW 11 15 6 8 1022.0 1022.2 0.0
31/02:30am 7.3 3.7 3.2 75 1.7 SSW 11 15 6 8 1022.4 1022.6 0.0
31/02:00am 7.9 4.0 3.4 73 1.9 SSW 13 17 7 9 1022.6 1022.8 0.0
31/01:30am 8.4 4.6 3.7 72 2.0 SW 13 17 7 9 1022.9 1023.1 0.0
31/01:00am 8.7 4.9 3.9 72 2.1 SW 13 17 7 9 1023.1 1023.3 0.0
31/12:30am 8.9 5.1 4.1 72 2.1 SW 13 17 7 9 1023.1 1023.3 0.0
31/12:00am 9.0 5.6 4.2 72 2.1 SSW 11 13 6 7 1023.4 1023.6 0.0
 
Date/Time
EST
Temp
°C
App
Temp
°C
Dew
Point
Rel
Hum
%
Delta-T
°C
Wind Press
QNH
hPa
Press
MSL
hPa
Rain
since 9 am
mm
Dir
 
Spd
km/h
Gust
km/h
Spd
kts
Gust
kts
30/11:30pm 8.6 5.5 3.8 72 2.1 SSW 9 15 5 8 1023.6 1023.8 0.0
30/11:00pm 7.9 4.8 3.4 73 1.9 S 9 11 5 6 1023.7 1023.9 0.0
30/10:30pm 7.7 4.2 3.4 74 1.8 SSW 11 13 6 7 1023.9 1024.1 0.0
30/10:00pm 6.8 2.8 2.7 75 1.7 SSW 13 13 7 7 1024.1 1024.3 0.0
30/09:30pm 7.4 3.4 2.7 72 2.0 SSW 13 15 7 8 1024.0 1024.2 0.0
30/09:00pm 8.8 4.5 3.2 68 2.4 SSW 15 17 8 9 1023.9 1024.1 0.0
30/08:30pm 9.3 5.4 3.3 66 2.6 SSW 13 17 7 9 1023.8 1024.0 0.0
30/08:00pm 9.3 5.0 3.1 65 2.7 S 15 24 8 13 1023.7 1023.9 0.0
30/07:30pm 10.4 5.8 3.7 63 3.0 S 17 20 9 11 1023.5 1023.7 0.0
30/07:00pm 11.2 7.0 3.7 60 3.3 SSW 15 20 8 11 1023.4 1023.6 0.0
30/06:30pm 11.6 6.5 4.1 60 3.4 S 20 22 11 12 1023.3 1023.5 0.0
30/06:00pm 12.1 7.2 4.1 58 3.6 SSW 19 24 10 13 1023.2 1023.4 0.0
30/05:30pm 12.5 7.1 4.5 58 3.7 S 22 28 12 15 1023.0 1023.2 0.0
30/05:00pm 13.1 7.7 4.3 55 4.0 SSW 22 28 12 15 1022.9 1023.1 0.0
30/04:30pm 13.3 8.3 4.5 55 4.1 SSW 20 28 11 15 1022.9 1023.1 0.0
30/04:00pm 13.3 8.7 3.9 53 4.3 S 17 26 9 14 1023.2 1023.4 0.0
30/03:30pm 14.1 9.2 4.1 51 4.6 SW 19 28 10 15 1023.2 1023.4 0.0
30/03:00pm 13.3 8.3 4.5 55 4.0 S 20 30 11 16 1023.4 1023.6 0.0
30/02:30pm 13.0 8.4 3.9 54 4.1 SSW 17 24 9 13 1023.6 1023.8 0.0
30/02:00pm 12.9 7.9 3.8 54 4.1 SSE 19 26 10 14 1023.8 1024.0 0.0
30/01:30pm 13.5 9.8 4.6 55 4.1 S 13 22 7 12 1024.1 1024.3 0.0
30/01:00pm 12.7 8.3 4.9 59 3.6 SSE 17 24 9 13 1024.6 1024.8 0.0
30/12:30pm 12.1 8.0 4.6 60 3.4 SSE 15 24 8 13 1025.1 1025.3 0.0
30/12:00pm 12.3 8.3 5.0 61 3.4 S 15 20 8 11 1025.6 1025.8 0.0
30/11:30am 11.5 7.5 4.7 63 3.1 S 15 24 8 13 1026.1 1026.4 0.0
30/11:00am 10.6 6.6 4.7 67 2.7 S 15 20 8 11 1026.5 1026.8 0.0
30/10:30am 10.2 5.8 4.6 68 2.5 S 17 22 9 12 1026.8 1027.1 0.0
30/10:00am 9.8 5.0 4.6 70 2.3 SSW 19 24 10 13 1027.0 1027.3 0.0
30/09:30am 9.2 4.9 5.2 76 1.8 SSW 17 26 9 14 1026.9 1027.2 0.0
30/09:00am 9.0 5.3 6.3 83 1.2 SSW 15 20 8 11 1026.9 1027.2 0.0
30/08:30am 7.6 3.9 6.4 92 0.6 SW 15 17 8 9 1026.9 1027.2 0.0
30/08:00am 7.0 3.6 6.1 94 0.4 SW 13 17 7 9 1026.6 1026.9 0.0
30/07:30am 6.5 3.8 5.8 95 0.3 WSW 9 11 5 6 1026.6 1026.9 0.0
30/07:00am 6.5 3.8 5.8 95 0.3 SW 9 11 5 6 1026.3 1026.6 0.0
30/06:54am 6.5 4.2 5.8 95 0.3 SW 7 11 4 6 1026.4 1026.7 0.0
30/06:30am 6.5 3.5 5.8 95 0.3 SW 11 15 6 8 1026.1 1026.4 0.0
30/06:00am 6.1 3.4 5.4 95 0.3 SW 9 13 5 7 1025.8 1026.1 0.0
30/05:59am 6.1 3.4 5.4 95 0.3 SW 9 11 5 6 1025.8 1026.1 0.0
30/05:46am 6.0 2.8 5.3 95 0.3 SW 11 13 6 7 1025.8 1026.1 0.0
30/05:31am 5.8 2.6 5.1 95 0.3 WSW 11 13 6 7 1025.9 1026.2 0.0
30/05:30am 5.8 2.6 5.1 95 0.3 WSW 11 13 6 7 1025.9 1026.2 0.0
30/05:00am 5.7 2.8 4.8 94 0.4 SW 9 11 5 6 1025.9 1026.2 0.0
30/04:53am 5.8 3.0 5.1 95 0.3 WSW 9 13 5 7 1025.9 1026.2 0.0
30/04:30am 5.6 2.0 4.9 95 0.3 SW 13 15 7 8 1026.0 1026.3 0.0
30/04:00am 4.8 1.8 4.1 95 0.3 SSW 9 11 5 6 1026.2 1026.5 0.0
30/03:30am 4.1 0.2 3.4 95 0.3 SW 13 15 7 8 1026.3 1026.6 0.0
30/03:13am 3.1 -0.2 2.2 94 0.4 SW 9 11 5 6 1026.4 1026.7 0.0
30/03:00am 3.9 0.7 3.0 94 0.4 WSW 9 13 5 7 1026.6 1026.9 0.0
30/02:30am 4.7 1.2 3.5 92 0.5 WSW 11 15 6 8 1026.9 1027.2 0.0
30/02:00am 6.0 1.9 4.5 90 0.6 WSW 15 19 8 10 1027.2 1027.5 0.0
30/01:30am 6.2 1.4 4.7 90 0.7 SW 19 22 10 12 1027.4 1027.7 0.0
30/01:00am 5.8 1.7 4.4 91 0.6 WSW 15 17 8 9 1027.4 1027.7 0.0
30/12:30am 5.7 2.3 4.0 89 0.7 WSW 11 13 6 7 1027.5 1027.8 0.0
30/12:00am 6.9 2.9 5.1 88 0.8 SW 15 17 8 9 1027.6 1027.9 0.0
 
Date/Time
EST
Temp
°C
App
Temp
°C
Dew
Point
Rel
Hum
%
Delta-T
°C
Wind Press
QNH
hPa
Press
MSL
hPa
Rain
since 9 am
mm
Dir
 
Spd
km/h
Gust
km/h
Spd
kts
Gust
kts
29/11:30pm 5.4 1.2 3.9 90 0.6 SW 15 19 8 10 1027.5 1027.8 0.0
29/11:00pm 5.0 0.7 3.0 87 0.8 SSW 15 17 8 9 1027.5 1027.8 0.0
29/10:30pm 6.4 1.5 3.9 84 1.1 SSW 19 20 10 11 1027.7 1028.0 0.0
29/10:00pm 7.3 2.4 3.9 79 1.5 SSW 19 24 10 13 1027.7 1028.0 0.0
29/09:30pm 8.4 3.0 4.4 76 1.8 SSW 22 28 12 15 1027.8 1028.1 0.0
29/09:00pm 9.0 3.2 4.4 73 2.0 SSW 24 32 13 17 1027.8 1028.1 0.0
29/08:30pm 9.3 3.9 4.3 71 2.2 SSW 22 32 12 17 1027.6 1027.9 0.0
29/08:00pm 9.6 4.1 3.8 67 2.5 S 22 28 12 15 1027.4 1027.7 0.0
29/07:30pm 9.8 4.2 3.5 65 2.8 S 22 28 12 15 1027.4 1027.7 0.0
29/07:00pm 10.0 4.4 3.3 63 2.9 S 22 26 12 14 1027.1 1027.4 0.0
29/06:30pm 10.4 5.1 3.2 61 3.2 S 20 26 11 14 1027.0 1027.3 0.0
29/06:00pm 10.8 5.4 2.6 57 3.5 S 20 28 11 15 1026.8 1027.1 0.0
29/05:30pm 11.3 4.5 2.9 56 3.7 S 28 33 15 18 1026.6 1026.9 0.0
29/05:00pm 11.8 5.1 1.7 50 4.3 S 26 33 14 18 1026.5 1026.8 0.0
29/04:30pm 12.8 6.5 1.8 47 4.8 S 24 33 13 18 1026.5 1026.8 0.0
29/04:00pm 12.1 5.7 0.8 46 4.7 SSE 24 32 13 17 1026.6 1026.9 0.0
29/03:30pm 13.1 6.8 1.8 46 4.9 S 24 35 13 19 1026.5 1026.8 0.0
29/03:00pm 13.2 6.8 0.9 43 5.2 SSW 24 32 13 17 1026.6 1026.9 0.0
29/02:30pm 13.2 6.8 1.2 44 5.2 S 24 33 13 18 1026.6 1026.9 0.0
29/02:00pm 12.8 6.7 0.2 42 5.2 SSE 22 33 12 18 1026.7 1027.0 0.0
29/01:30pm 12.4 6.7 -0.5 41 5.3 S 19 30 10 16 1027.1 1027.4 0.0
29/01:00pm 12.7 7.9 0.5 43 5.1 SSE 15 20 8 11 1027.5 1027.8 0.0
29/12:30pm 11.9 6.0 -0.9 41 5.2 S 20 30 11 16 1028.0 1028.3 0.0
29/12:00pm 11.8 5.9 -1.0 41 5.1 S 20 30 11 16 1028.3 1028.6 0.0
29/11:30am 11.0 5.8 0.1 47 4.5 S 17 28 9 15 1028.7 1029.0 0.0
29/11:00am 10.5 4.0 0.0 48 4.2 S 24 32 13 17 1028.7 1029.0 0.0
29/10:30am 9.5 2.9 -0.4 50 3.9 S 24 39 13 21 1028.9 1029.2 0.0
29/10:00am 9.4 4.6 0.1 52 3.7 S 15 26 8 14 1029.2 1029.4 0.0
29/09:30am 8.3 3.9 0.1 56 3.3 SSW 13 19 7 10 1029.3 1029.5 0.0
29/09:00am 6.7 2.7 0.4 64 2.5 SSW 11 13 6 7 1029.4 1029.6 0.0
29/08:30am 4.2 1.0 0.5 77 1.4 SSW 7 9 4 5 1029.3 1029.5 0.0
29/08:00am 0.9 -2.5 -0.9 88 0.6 S 7 9 4 5 1029.0 1029.3 0.0
29/07:30am -1.8 -6.7 -3.8 86 0.6 SSW 13 15 7 8 1028.7 1029.0 0.0
29/07:00am 0.5 -3.8 -1.6 86 0.8 SSW 11 13 6 7 1028.4 1028.7 0.0
29/06:30am 1.1 -3.5 -1.3 84 0.8 SSW 13 15 7 8 1028.1 1028.4 0.0
29/06:00am 1.3 -3.3 -1.3 83 0.9 SSW 13 15 7 8 1027.8 1028.1 0.0
29/05:30am 0.9 -3.4 -1.5 84 0.8 S 11 13 6 7 1027.8 1028.1 0.0
29/05:00am 2.1 -2.0 -0.3 84 0.9 S 11 11 6 6 1027.7 1028.0 0.0
29/04:30am 0.9 -3.7 -1.2 86 0.7 SSE 13 15 7 8 1027.5 1027.8 0.0
29/04:00am 2.2 -1.4 0.4 88 0.7 SSE 9 11 5 6 1027.5 1027.8 0.0
29/03:30am 0.8 -4.3 -1.6 84 0.9 S 15 17 8 9 1027.4 1027.7 0.0
29/03:00am 2.0 -2.9 -0.7 82 1.0 S 15 17 8 9 1027.5 1027.8 0.0
29/02:30am 3.8 -0.9 0.7 80 1.2 S 15 17 8 9 1027.6 1027.9 0.0
29/02:00am 4.8 0.7 2.0 82 1.1 S 13 15 7 8 1027.8 1028.1 0.0
29/01:30am 5.2 1.9 2.6 83 1.1 SSE 9 13 5 7 1027.9 1028.2 0.0
29/01:00am 6.0 2.1 3.2 82 1.2 SSE 13 15 7 8 1027.8 1028.1 0.0
29/12:30am 6.4 2.0 2.9 78 1.5 SSE 15 17 8 9 1027.6 1027.9 0.0
29/12:00am 7.6 2.9 3.1 73 1.9 SSE 17 22 9 12 1027.6 1027.9 0.0
 
Date/Time
EST
Temp
°C
App
Temp
°C
Dew
Point
Rel
Hum
%
Delta-T
°C
Wind Press
QNH
hPa
Press
MSL
hPa
Rain
since 9 am
mm
Dir
 
Spd
km/h
Gust
km/h
Spd
kts
Gust
kts
28/11:30pm 8.3 3.1 3.4 71 2.1 SSE 20 24 11 13 1027.5 1027.8 0.0

Other Formats:

Comma delimited format used in spreadsheet applications
http://www.bom.gov.au/fwo/IDV60801/IDV60801.95839.axf

JavaScript Object Notation format (JSON) in row-major order
http://www.bom.gov.au/fwo/IDV60801/IDV60801.95839.json